createdAt,value
2023-03-08T06:21:32.492Z,22.83
2023-03-08T06:24:07.497Z,22.20
2023-03-08T06:26:35.226Z,23.67
2023-03-08T06:29:03.395Z,20.47
2023-03-08T06:31:32.617Z,20.67
2023-03-08T06:34:02.399Z,21.37
2023-03-08T06:36:30.190Z,19.77
2023-03-08T06:38:59.669Z,21.27
2023-03-08T06:41:27.061Z,21.40
2023-03-08T06:43:57.932Z,23.23
2023-03-08T06:46:25.306Z,22.97
2023-03-08T06:48:54.076Z,19.60
2023-03-08T06:51:21.618Z,17.40
2023-03-08T06:53:50.436Z,20.50
2023-03-08T06:56:21.410Z,23.27
2023-03-08T06:58:48.787Z,18.63
2023-03-08T07:01:16.375Z,14.83
2023-03-08T07:03:45.530Z,23.60
2023-03-08T07:06:13.128Z,20.00
2023-03-08T07:08:40.521Z,19.07
2023-03-08T07:11:11.486Z,20.97
2023-03-08T07:13:38.818Z,19.20
2023-03-08T07:16:09.977Z,16.57
2023-03-08T07:18:37.379Z,21.13
2023-03-08T07:21:04.893Z,15.77
2023-03-08T07:23:32.366Z,14.90
2023-03-08T07:25:59.688Z,18.63
2023-03-08T07:28:27.007Z,16.73
2023-03-08T07:30:54.632Z,16.43
2023-03-08T07:33:22.159Z,16.00
2023-03-08T07:35:49.954Z,18.80
2023-03-08T07:38:17.534Z,14.73
2023-03-08T07:40:45.081Z,16.77
2023-03-08T07:43:12.639Z,15.27
2023-03-08T07:45:53.733Z,14.40
2023-03-08T07:48:20.964Z,18.07
2023-03-08T07:50:48.956Z,15.47
2023-03-08T07:53:16.276Z,16.73
2023-03-08T07:55:43.801Z,17.97
2023-03-08T07:58:11.050Z,16.37
2023-03-08T08:00:38.410Z,18.27
2023-03-08T08:03:05.771Z,21.43
2023-03-08T08:05:33.145Z,13.50
2023-03-08T08:08:00.445Z,15.00
2023-03-08T08:10:27.713Z,15.90
2023-03-08T08:12:55.008Z,14.47
2023-03-08T08:15:25.287Z,18.40
2023-03-08T08:17:53.183Z,18.73
2023-03-08T08:20:20.564Z,15.40
2023-03-08T08:22:47.875Z,17.37
2023-03-08T08:25:15.147Z,17.07
2023-03-08T08:27:42.427Z,13.00
2023-03-08T08:30:10.068Z,15.30
2023-03-08T08:32:37.422Z,14.03
2023-03-08T08:35:04.936Z,18.30
2023-03-08T08:37:32.756Z,14.03
2023-03-08T08:40:00.127Z,12.33
2023-03-08T08:42:27.453Z,16.13
2023-03-08T08:44:54.886Z,14.53
2023-03-08T08:47:22.178Z,21.17
2023-03-08T08:49:49.438Z,16.00
2023-03-08T08:52:16.814Z,16.33
2023-03-08T08:54:44.176Z,13.25
2023-03-08T08:57:11.614Z,17.07
2023-03-08T08:59:39.277Z,13.97
2023-03-08T09:02:06.844Z,13.73
2023-03-08T09:04:34.186Z,13.47
2023-03-08T09:07:01.643Z,12.73
2023-03-08T09:09:28.905Z,11.10
2023-03-08T09:11:56.278Z,12.40
2023-03-08T09:14:24.119Z,10.33
2023-03-08T09:16:52.676Z,14.57
2023-03-08T09:19:20.350Z,13.63
2023-03-08T09:21:47.678Z,10.40
2023-03-08T09:24:15.033Z,13.80
2023-03-08T09:26:42.318Z,11.70
2023-03-08T09:29:11.467Z,10.97
2023-03-08T09:31:38.900Z,12.23
2023-03-08T09:34:09.203Z,10.83
2023-03-08T09:36:39.666Z,12.43
2023-03-08T09:39:08.934Z,12.63
2023-03-08T09:41:45.428Z,15.53
2023-03-08T09:44:31.765Z,13.73
2023-03-08T09:47:11.403Z,9.80
2023-03-08T09:49:39.895Z,9.73
2023-03-08T09:52:07.221Z,10.07
2023-03-08T09:54:35.450Z,12.50
2023-03-08T09:57:03.829Z,11.70
2023-03-08T09:59:40.912Z,12.10
2023-03-08T10:02:14.213Z,17.77
2023-03-08T10:04:44.527Z,10.77
2023-03-08T10:07:50.605Z,10.13
2023-03-08T10:10:17.890Z,17.80
2023-03-08T10:12:50.730Z,19.00
2023-03-08T10:15:20.498Z,10.20
2023-03-08T10:17:54.208Z,10.20
2023-03-08T10:20:21.757Z,9.27
2023-03-08T10:22:52.314Z,13.07
2023-03-08T10:25:24.542Z,9.73
2023-03-08T10:27:56.137Z,10.57
2023-03-08T10:30:26.819Z,10.10
2023-03-08T10:32:59.659Z,13.73
2023-03-08T10:35:38.054Z,8.77
2023-03-08T10:38:06.558Z,8.10
2023-03-08T10:40:33.855Z,9.50
2023-03-08T10:43:05.468Z,8.47
2023-03-08T10:45:33.688Z,11.60
2023-03-08T10:48:05.388Z,12.07
2023-03-08T10:50:35.461Z,9.00
2023-03-08T10:53:16.738Z,12.97
2023-03-08T10:55:53.360Z,11.40
2023-03-08T10:58:46.715Z,10.97
2023-03-08T11:01:28.092Z,8.87
2023-03-08T11:04:15.809Z,10.27
2023-03-08T11:06:43.109Z,11.80
2023-03-08T11:09:28.013Z,9.00
2023-03-08T11:11:56.531Z,13.07
2023-03-08T11:14:24.607Z,9.47
2023-03-08T11:17:00.360Z,7.90
2023-03-08T11:19:32.856Z,7.63
2023-03-08T11:22:02.204Z,11.07
2023-03-08T11:24:35.720Z,9.97
2023-03-08T11:27:32.665Z,12.83
2023-03-08T11:30:02.947Z,10.30
2023-03-08T11:32:39.746Z,6.60
2023-03-08T11:35:07.272Z,6.43
2023-03-08T11:37:37.454Z,10.33
2023-03-08T11:40:19.889Z,11.83
2023-03-08T11:42:47.197Z,11.00
2023-03-08T11:45:17.760Z,7.87
2023-03-08T11:48:03.941Z,12.13
2023-03-08T11:50:33.950Z,10.10
2023-03-08T11:53:17.759Z,12.97
2023-03-08T11:56:00.310Z,10.87
2023-03-08T11:58:44.351Z,7.97
2023-03-08T12:01:37.672Z,6.83
2023-03-08T12:04:09.048Z,8.43
2023-03-08T12:06:40.786Z,8.37
2023-03-08T12:09:08.361Z,12.77
2023-03-08T12:11:40.165Z,7.10
2023-03-08T12:14:13.949Z,6.87
2023-03-08T12:16:48.251Z,8.87
2023-03-08T12:19:15.842Z,10.67
2023-03-08T12:21:51.943Z,8.77
2023-03-08T12:24:28.053Z,10.70
2023-03-08T12:27:27.743Z,14.97
2023-03-08T12:30:14.004Z,9.57
2023-03-08T12:32:42.600Z,13.13
2023-03-08T12:35:28.362Z,10.60
2023-03-08T12:38:27.970Z,6.03
2023-03-08T12:40:55.845Z,8.47
2023-03-08T12:43:22.667Z,14.70
2023-03-08T12:46:06.498Z,8.33
2023-03-08T12:48:39.373Z,11.37
2023-03-08T12:51:11.985Z,9.63
2023-03-08T12:53:52.720Z,19.40
2023-03-08T12:56:22.552Z,17.07
2023-03-08T12:58:55.952Z,20.60
2023-03-08T13:01:34.648Z,7.07
2023-03-08T13:04:04.385Z,10.70
2023-03-08T13:06:53.988Z,9.87
2023-03-08T13:09:31.536Z,11.60
2023-03-08T13:12:16.494Z,13.37
2023-03-08T13:15:22.608Z,10.90
2023-03-08T13:18:06.306Z,11.35
2023-03-08T13:21:15.362Z,8.73
2023-03-08T13:23:57.952Z,10.83
2023-03-08T13:26:49.958Z,11.30
2023-03-08T13:29:19.114Z,11.80
2023-03-08T13:31:47.850Z,11.43
2023-03-08T13:34:34.617Z,8.80
2023-03-08T13:37:03.822Z,11.07
2023-03-08T13:39:32.079Z,11.13
2023-03-08T13:42:11.835Z,11.07
2023-03-08T13:44:39.212Z,10.37
2023-03-08T13:47:26.381Z,10.17
2023-03-08T13:49:56.953Z,10.10
2023-03-08T13:52:44.342Z,11.63
2023-03-08T13:55:37.781Z,9.53
2023-03-08T13:58:05.449Z,8.00
2023-03-08T14:00:35.429Z,9.57
2023-03-08T14:03:07.866Z,12.47
2023-03-08T14:05:42.740Z,12.00
2023-03-08T14:08:21.716Z,14.97
2023-03-08T14:11:05.058Z,11.77
2023-03-08T14:13:36.189Z,13.13
2023-03-08T14:16:08.346Z,13.87
2023-03-08T14:18:40.862Z,14.53
2023-03-08T14:21:14.754Z,15.40
2023-03-08T14:23:48.073Z,17.07
2023-03-08T14:26:34.949Z,16.43
2023-03-08T14:29:11.407Z,16.40
2023-03-08T14:31:41.592Z,14.27
2023-03-08T14:34:29.098Z,13.40
2023-03-08T14:36:58.297Z,15.27
2023-03-08T14:39:27.380Z,13.63
2023-03-08T14:41:55.698Z,13.77
2023-03-08T14:44:28.289Z,13.30
2023-03-08T14:47:01.157Z,14.60
2023-03-08T14:49:29.207Z,13.73
2023-03-08T14:51:56.262Z,10.47
2023-03-08T14:54:29.674Z,11.30
2023-03-08T14:56:56.795Z,14.50
2023-03-08T14:59:27.850Z,12.57
2023-03-08T15:01:55.513Z,14.60
2023-03-08T15:04:25.630Z,15.03
2023-03-08T15:06:54.618Z,14.83
2023-03-08T15:09:22.620Z,12.50
2023-03-08T15:11:52.561Z,22.00
2023-03-08T15:14:19.480Z,19.47
2023-03-08T15:16:46.564Z,13.40
2023-03-08T15:19:14.076Z,14.37
2023-03-08T15:21:42.123Z,20.23
2023-03-08T15:24:16.090Z,12.07
2023-03-08T15:26:44.026Z,14.57
2023-03-08T15:29:26.561Z,16.23
2023-03-08T15:31:54.000Z,19.47
2023-03-08T15:34:21.709Z,14.63
2023-03-08T15:36:50.082Z,14.23
2023-03-08T15:39:18.291Z,16.57
2023-03-08T15:41:45.599Z,15.30
2023-03-08T15:44:12.904Z,14.87
2023-03-08T15:46:39.867Z,20.77
2023-03-08T15:49:07.071Z,15.37
2023-03-08T15:51:36.032Z,17.80
2023-03-08T15:54:04.302Z,16.80
2023-03-08T15:56:31.216Z,15.63
2023-03-08T15:58:58.366Z,14.03
2023-03-08T16:01:26.922Z,13.60
2023-03-08T16:03:55.698Z,18.53
2023-03-08T16:06:23.401Z,12.30
2023-03-08T16:08:50.629Z,14.73
2023-03-08T17:02:49.785Z,18.07
2023-03-08T17:05:17.113Z,14.23
2023-03-08T17:07:47.018Z,14.10
2023-03-08T17:10:14.414Z,16.77
2023-03-08T17:12:41.813Z,15.27
2023-03-08T17:15:10.947Z,13.43
2023-03-08T17:17:41.401Z,11.77
2023-03-08T17:20:09.182Z,16.67
2023-03-08T17:22:36.518Z,14.73
2023-03-08T17:25:03.978Z,16.73
2023-03-08T17:27:31.383Z,18.43
2023-03-08T17:30:00.707Z,18.77
2023-03-08T17:32:28.274Z,17.23
2023-03-08T17:34:55.571Z,18.93
2023-03-08T17:37:23.086Z,20.60
2023-03-08T17:39:50.635Z,19.23
2023-03-08T17:42:18.268Z,18.60
2023-03-08T17:44:45.657Z,19.40
2023-03-08T17:47:13.973Z,21.23
2023-03-08T17:49:41.410Z,18.13
2023-03-08T17:52:09.788Z,17.67
2023-03-08T17:54:37.117Z,18.57
2023-03-08T17:57:04.615Z,16.70
2023-03-08T17:59:31.884Z,18.53
2023-03-08T18:01:59.251Z,19.00
2023-03-08T18:04:26.575Z,17.27
2023-03-08T18:06:53.907Z,19.20
2023-03-08T18:09:21.322Z,19.97
2023-03-08T18:11:50.065Z,21.47
2023-03-08T18:14:17.410Z,18.90
2023-03-08T18:16:45.130Z,17.77
2023-03-08T18:19:12.429Z,15.57
2023-03-08T18:21:41.311Z,20.47
2023-03-08T18:24:11.117Z,19.27
2023-03-08T18:26:38.387Z,20.20
2023-03-08T18:29:05.652Z,28.07
2023-03-08T18:31:35.289Z,18.13
2023-03-08T18:34:03.118Z,20.87
2023-03-08T18:36:30.519Z,21.87
2023-03-08T18:38:57.951Z,19.20
2023-03-08T18:41:27.211Z,21.37
2023-03-08T18:43:55.023Z,18.87
2023-03-08T18:46:28.553Z,19.37
2023-03-08T18:49:00.821Z,19.87
2023-03-08T18:51:29.001Z,19.20
2023-03-08T18:53:56.814Z,21.97
2023-03-08T18:56:25.821Z,21.37
2023-03-08T18:58:53.585Z,18.77
2023-03-08T19:01:21.038Z,17.27
2023-03-08T19:03:48.751Z,18.97
2023-03-08T19:06:16.032Z,19.53
2023-03-08T19:08:43.692Z,35.60
2023-03-08T19:11:18.428Z,21.10
2023-03-08T19:13:46.313Z,20.73
2023-03-08T19:16:18.633Z,22.67
2023-03-08T19:18:46.382Z,25.83
2023-03-08T19:21:24.897Z,23.50
2023-03-08T19:23:52.205Z,25.13
2023-03-08T19:26:36.310Z,28.97
2023-03-08T19:29:03.745Z,26.40
2023-03-08T19:31:31.288Z,24.50
2023-03-08T19:33:59.168Z,25.80
2023-03-08T19:36:26.440Z,26.97
2023-03-08T19:38:55.345Z,22.07
2023-03-08T19:41:22.795Z,23.27
2023-03-08T19:43:50.071Z,28.23
2023-03-08T19:46:17.991Z,25.60
2023-03-08T19:48:46.165Z,23.53
2023-03-08T19:51:17.839Z,22.13
2023-03-08T19:53:45.548Z,22.77
2023-03-08T19:56:17.048Z,22.03
2023-03-08T19:58:45.004Z,22.27
2023-03-08T20:01:13.297Z,27.70
2023-03-08T20:03:40.735Z,22.10
2023-03-08T20:06:08.260Z,21.97
2023-03-08T20:08:36.236Z,21.23
2023-03-08T20:11:04.087Z,20.93
2023-03-08T20:13:31.839Z,19.27
2023-03-08T20:15:59.226Z,18.77
2023-03-08T20:18:26.555Z,20.30
2023-03-08T20:20:54.013Z,19.77
2023-03-08T20:23:20.961Z,22.20
2023-03-08T20:25:47.861Z,21.50
2023-03-08T20:28:14.801Z,21.13
2023-03-08T20:30:41.793Z,22.93
2023-03-08T20:33:10.778Z,21.07
2023-03-08T20:35:38.270Z,21.10
2023-03-08T20:38:05.304Z,25.50
2023-03-08T20:40:32.382Z,23.40
2023-03-08T20:43:00.798Z,26.50
2023-03-08T20:45:29.042Z,26.00
2023-03-08T20:47:57.500Z,29.17
2023-03-08T20:50:26.590Z,24.83
2023-03-08T20:52:54.227Z,30.37
2023-03-08T20:55:21.711Z,30.43
2023-03-08T20:57:49.014Z,35.07
2023-03-08T21:00:16.525Z,36.73
2023-03-08T21:02:43.835Z,33.60
2023-03-08T21:05:11.571Z,26.67
2023-03-08T21:07:38.934Z,24.80
2023-03-08T21:10:06.271Z,24.63
2023-03-08T21:12:33.648Z,26.90
2023-03-08T21:15:01.505Z,26.13
2023-03-08T21:17:29.907Z,28.20
2023-03-08T21:19:57.419Z,25.67
2023-03-08T21:22:25.057Z,24.60
2023-03-08T21:24:52.556Z,24.87
2023-03-08T21:27:19.963Z,26.10
2023-03-08T21:29:47.334Z,30.80
2023-03-08T21:32:14.698Z,27.27
2023-03-08T21:34:42.031Z,24.53
2023-03-08T21:37:09.500Z,25.57
2023-03-08T21:39:36.812Z,28.17
2023-03-08T21:42:04.425Z,38.57
2023-03-08T21:44:32.194Z,33.60
2023-03-08T21:46:59.644Z,35.07
2023-03-08T21:49:27.858Z,34.23
2023-03-08T21:51:56.370Z,33.43
2023-03-08T21:54:24.340Z,36.27
2023-03-08T21:56:51.983Z,35.93
2023-03-08T21:59:19.528Z,32.83
2023-03-08T22:01:48.890Z,35.50
2023-03-08T22:04:18.700Z,37.43
2023-03-08T22:06:46.847Z,30.63
2023-03-08T22:09:14.175Z,33.33
2023-03-08T22:11:41.446Z,33.27
2023-03-08T22:14:08.723Z,36.00
2023-03-08T22:16:41.931Z,30.80
2023-03-08T22:19:10.629Z,27.87
2023-03-08T22:21:38.128Z,26.13
2023-03-08T22:24:05.511Z,24.20
2023-03-08T22:26:33.114Z,24.87
2023-03-08T22:29:00.670Z,25.53
2023-03-08T22:31:29.642Z,22.70
2023-03-08T22:33:57.313Z,23.47
2023-03-08T22:36:24.949Z,21.67
2023-03-08T22:38:52.261Z,16.70
2023-03-08T22:41:23.973Z,18.93
2023-03-08T22:43:51.614Z,19.40
2023-03-08T22:46:22.229Z,18.50
2023-03-08T22:48:51.686Z,18.77
2023-03-08T22:51:20.334Z,21.37
2023-03-08T22:53:47.655Z,21.83
2023-03-08T22:56:19.819Z,20.63
2023-03-08T22:58:47.194Z,21.97
2023-03-08T23:01:15.708Z,22.70
2023-03-08T23:03:43.630Z,23.10
2023-03-08T23:06:11.068Z,21.80
2023-03-08T23:08:38.741Z,23.83
2023-03-08T23:11:06.810Z,24.20
2023-03-08T23:13:35.021Z,26.60
2023-03-08T23:16:02.624Z,26.60
2023-03-08T23:18:30.006Z,26.13
2023-03-08T23:20:57.374Z,27.07
2023-03-08T23:23:25.289Z,27.30
2023-03-08T23:25:52.950Z,28.30
2023-03-08T23:28:20.915Z,26.93
2023-03-08T23:30:48.385Z,26.53
2023-03-08T23:33:15.848Z,27.60
2023-03-08T23:35:43.312Z,27.23
2023-03-08T23:38:11.299Z,28.43
2023-03-08T23:40:40.021Z,27.37
2023-03-08T23:43:07.939Z,28.37
2023-03-08T23:45:35.458Z,25.63
2023-03-08T23:48:03.467Z,26.90
2023-03-08T23:50:31.000Z,30.43
2023-03-08T23:52:58.250Z,26.67
2023-03-08T23:55:25.666Z,28.73
2023-03-08T23:57:52.926Z,32.60
